RORH(METAR)
03/25 15:00
RORH 250600Z 32012KT 0500 +RA SCT015 OVC020 22/21 Q1013 RMK A2993=
戻る
トップページへ戻る
IMOC Co,.Ltd.